createdAt,value
2019-05-07T00:01:16.666Z,0.80
2019-05-07T00:03:45.227Z,0.95
2019-05-07T00:06:13.799Z,1.30
2019-05-07T00:08:44.707Z,1.00
2019-05-07T00:11:12.849Z,1.12
2019-05-07T00:13:44.099Z,1.20
2019-05-07T00:16:12.805Z,1.07
2019-05-07T00:18:42.923Z,0.90
2019-05-07T00:21:12.618Z,0.85
2019-05-07T00:23:43.206Z,0.90
2019-05-07T00:26:13.239Z,1.30
2019-05-07T00:28:43.244Z,0.90
2019-05-07T00:31:12.414Z,0.90
2019-05-07T00:33:43.210Z,1.12
2019-05-07T00:36:17.910Z,0.98
2019-05-07T00:38:52.063Z,1.10
2019-05-07T00:41:26.759Z,0.80
2019-05-07T00:43:57.067Z,0.93
2019-05-07T00:46:32.185Z,0.80
2019-05-07T00:49:02.390Z,0.90
2019-05-07T00:51:33.361Z,1.00
2019-05-07T00:54:02.926Z,1.17
2019-05-07T00:56:33.189Z,0.80
2019-05-07T00:59:02.320Z,1.17
2019-05-07T01:01:32.329Z,0.80
2019-05-07T01:04:02.717Z,1.07
2019-05-07T01:06:33.123Z,0.80
2019-05-07T01:09:03.205Z,0.90
2019-05-07T01:11:33.525Z,1.35
2019-05-07T01:14:02.842Z,1.20
2019-05-07T01:16:32.992Z,0.90
2019-05-07T01:19:02.231Z,0.93
2019-05-07T01:21:32.521Z,1.00
2019-05-07T01:24:03.290Z,1.20
2019-05-07T01:26:33.088Z,1.00
2019-05-07T01:29:03.197Z,0.90
2019-05-07T01:31:48.833Z,1.15
2019-05-07T01:34:25.642Z,1.02
2019-05-07T01:36:54.228Z,0.98
2019-05-07T01:39:23.294Z,0.90
2019-05-07T01:41:52.510Z,0.82
2019-05-07T01:44:22.126Z,0.82
2019-05-07T01:46:52.911Z,0.90
2019-05-07T01:49:23.876Z,0.90
2019-05-07T01:51:52.972Z,1.02
2019-05-07T01:54:23.695Z,1.15
2019-05-07T01:56:52.438Z,0.80
2019-05-07T01:59:22.481Z,0.85
2019-05-07T02:01:52.952Z,1.25
2019-05-07T02:04:34.110Z,0.90
2019-05-07T02:07:22.687Z,0.90
2019-05-07T02:10:09.062Z,0.80
2019-05-07T02:12:38.397Z,0.82
2019-05-07T02:15:08.233Z,0.90
2019-05-07T02:17:36.797Z,1.17
2019-05-07T02:20:05.926Z,0.93
2019-05-07T02:22:35.578Z,0.98
2019-05-07T02:25:04.215Z,1.10
2019-05-07T02:27:33.005Z,0.78
2019-05-07T02:30:04.070Z,1.00
2019-05-07T02:32:33.473Z,0.88
2019-05-07T02:35:04.026Z,1.15
2019-05-07T02:37:52.070Z,0.75
2019-05-07T02:40:25.176Z,1.00
2019-05-07T02:42:54.203Z,0.88
2019-05-07T02:45:32.956Z,1.00
2019-05-07T02:48:00.046Z,1.35
2019-05-07T02:50:53.923Z,0.90
2019-05-07T02:53:26.980Z,1.20
2019-05-07T02:55:56.917Z,1.05
2019-05-07T02:58:25.520Z,1.10
2019-05-07T03:00:54.071Z,1.10
2019-05-07T03:03:24.752Z,0.80
2019-05-07T03:05:53.776Z,1.07
2019-05-07T03:08:27.024Z,0.85
2019-05-07T03:10:53.010Z,0.90
2019-05-07T03:13:23.596Z,0.90
2019-05-07T03:15:54.034Z,0.80
2019-05-07T03:18:23.483Z,1.05
2019-05-07T03:20:57.378Z,0.90
2019-05-07T03:23:33.752Z,0.90
2019-05-07T03:26:06.842Z,1.10
2019-05-07T03:28:55.638Z,1.25
2019-05-07T03:31:36.059Z,0.90
2019-05-07T03:34:16.615Z,0.70
2019-05-07T03:36:48.946Z,0.98
2019-05-07T03:39:17.900Z,0.90
2019-05-07T03:41:46.611Z,0.90
2019-05-07T03:44:23.858Z,0.72
2019-05-07T03:47:01.494Z,0.90
2019-05-07T03:49:33.850Z,0.80
2019-05-07T03:52:03.848Z,0.80
2019-05-07T03:54:33.873Z,0.78
2019-05-07T03:57:09.548Z,0.90
2019-05-07T03:59:34.176Z,0.62
2019-05-07T04:02:03.354Z,0.98
2019-05-07T04:04:33.275Z,1.10
2019-05-07T04:07:03.485Z,0.70
2019-05-07T04:09:33.386Z,1.10
2019-05-07T04:12:03.964Z,0.80
2019-05-07T04:14:34.398Z,0.78
2019-05-07T04:17:14.372Z,0.90
2019-05-07T04:19:33.520Z,0.78
2019-05-07T04:22:04.295Z,0.90
2019-05-07T04:24:57.947Z,1.02
2019-05-07T04:27:33.215Z,0.90
2019-05-07T04:30:03.809Z,1.00
2019-05-07T04:32:38.928Z,0.90
2019-05-07T04:35:13.231Z,0.90
2019-05-07T04:37:42.771Z,0.90
2019-05-07T04:40:13.481Z,0.88
2019-05-07T04:42:42.745Z,0.80
2019-05-07T04:45:13.624Z,0.80
2019-05-07T04:48:03.050Z,1.10
2019-05-07T04:50:42.730Z,0.93
2019-05-07T04:53:03.746Z,1.82
2019-05-07T04:55:33.482Z,0.98
2019-05-07T04:58:03.395Z,1.20
2019-05-07T05:00:33.546Z,1.07
2019-05-07T05:03:12.899Z,0.90
2019-05-07T05:05:43.536Z,1.20
2019-05-07T05:08:13.362Z,1.00
2019-05-07T05:10:43.287Z,1.20
2019-05-07T05:13:13.041Z,0.90
2019-05-07T05:15:43.189Z,1.60
2019-05-07T05:18:12.694Z,1.40
2019-05-07T05:20:48.585Z,1.02
2019-05-07T05:23:36.634Z,1.42
2019-05-07T05:26:05.230Z,1.25
2019-05-07T05:28:34.139Z,0.75
2019-05-07T05:31:04.567Z,0.75
2019-05-07T05:33:33.102Z,0.90
2019-05-07T05:36:03.066Z,1.00
2019-05-07T05:38:32.917Z,1.60
2019-05-07T05:41:02.734Z,0.95
2019-05-07T05:43:52.615Z,0.90
2019-05-07T05:46:22.652Z,0.90
2019-05-07T05:48:52.003Z,1.72
2019-05-07T05:51:45.910Z,0.70
2019-05-07T05:54:32.019Z,1.98
2019-05-07T05:57:08.340Z,0.80
2019-05-07T05:59:51.289Z,0.90
2019-05-07T06:02:32.473Z,1.10
2019-05-07T06:05:34.305Z,1.52
2019-05-07T06:08:28.880Z,0.70
2019-05-07T06:11:04.438Z,0.75
2019-05-07T06:13:42.636Z,0.85
2019-05-07T06:16:22.030Z,0.70
2019-05-07T06:19:04.862Z,0.78
2019-05-07T06:22:01.992Z,1.22
2019-05-07T06:24:38.519Z,0.90
2019-05-07T06:27:07.167Z,0.98
2019-05-07T06:29:35.735Z,1.20
2019-05-07T06:32:06.702Z,0.80
2019-05-07T06:34:35.290Z,0.88
2019-05-07T06:37:03.846Z,1.05
2019-05-07T06:39:39.002Z,0.80
2019-05-07T06:42:27.529Z,0.90
2019-05-07T06:45:14.351Z,0.75
2019-05-07T06:47:42.923Z,0.82
2019-05-07T06:50:12.503Z,0.80
2019-05-07T06:52:42.578Z,1.32
2019-05-07T06:55:12.157Z,1.05
2019-05-07T06:57:42.511Z,0.80
2019-05-07T07:00:31.887Z,1.10
2019-05-07T07:03:08.650Z,0.70
2019-05-07T07:05:55.154Z,0.80
2019-05-07T07:08:29.964Z,0.72
2019-05-07T07:11:03.278Z,1.47
2019-05-07T07:13:32.334Z,2.92
2019-05-07T07:16:01.890Z,2.40
2019-05-07T07:18:32.273Z,4.37
2019-05-07T07:21:02.176Z,3.33
2019-05-07T07:23:32.308Z,0.93
2019-05-07T07:26:03.150Z,1.80
2019-05-07T07:28:32.729Z,2.87
2019-05-07T07:31:08.495Z,1.10
2019-05-07T07:33:39.929Z,1.35
2019-05-07T07:36:08.469Z,1.65
2019-05-07T07:38:37.035Z,4.65
2019-05-07T07:41:12.730Z,1.37
2019-05-07T07:43:41.947Z,1.52
2019-05-07T07:46:12.842Z,2.27
2019-05-07T07:48:43.348Z,2.55
2019-05-07T07:51:13.592Z,1.20
2019-05-07T07:53:42.501Z,4.85
2019-05-07T07:56:51.899Z,2.67
2019-05-07T07:59:35.146Z,1.22
2019-05-07T08:02:32.331Z,5.35
2019-05-07T08:05:02.110Z,3.10
2019-05-07T08:07:32.946Z,2.77
2019-05-07T08:10:02.605Z,4.90
2019-05-07T08:12:32.531Z,3.90
2019-05-07T08:15:14.789Z,7.50
2019-05-07T08:17:32.624Z,4.97
2019-05-07T08:20:02.522Z,2.83
2019-05-07T08:22:32.997Z,3.98
2019-05-07T08:25:03.650Z,5.30
2019-05-07T08:27:32.585Z,5.62
2019-05-07T08:30:02.935Z,6.22
2019-05-07T08:32:52.779Z,4.58
2019-05-07T08:35:25.085Z,6.65
2019-05-07T08:37:53.698Z,3.35
2019-05-07T08:40:22.539Z,5.30
2019-05-07T08:42:52.385Z,2.83
2019-05-07T08:45:39.131Z,3.62
2019-05-07T08:48:26.839Z,2.95
2019-05-07T08:50:55.674Z,3.92
2019-05-07T08:53:24.434Z,5.85
2019-05-07T08:55:52.983Z,6.75
2019-05-07T08:58:22.378Z,5.05
2019-05-07T09:00:52.297Z,9.15
2019-05-07T09:03:38.868Z,6.72
2019-05-07T09:06:07.517Z,4.17
2019-05-07T09:08:36.538Z,5.67
2019-05-07T09:11:05.114Z,2.85
2019-05-07T09:13:33.730Z,7.85
2019-05-07T09:16:02.490Z,7.35
2019-05-07T09:18:32.207Z,4.00
2019-05-07T09:21:02.226Z,3.45
2019-05-07T09:23:31.967Z,5.10
2019-05-07T09:26:02.605Z,5.47
2019-05-07T09:28:53.211Z,5.15
2019-05-07T09:31:32.238Z,6.15
2019-05-07T09:34:02.658Z,2.80
2019-05-07T09:36:37.877Z,5.17
2019-05-07T09:39:06.980Z,6.40
2019-05-07T09:41:35.915Z,3.95
2019-05-07T09:44:04.966Z,4.80
2019-05-07T09:46:33.552Z,3.05
2019-05-07T09:49:05.274Z,4.62
2019-05-07T09:51:35.980Z,2.17
2019-05-07T09:54:05.034Z,4.08
2019-05-07T09:56:33.932Z,4.00
2019-05-07T09:59:02.751Z,4.17
2019-05-07T10:01:31.966Z,5.37
2019-05-07T10:04:02.629Z,4.00
2019-05-07T10:06:32.111Z,6.47
2019-05-07T10:09:02.709Z,4.22
2019-05-07T10:11:38.398Z,3.95
2019-05-07T10:14:12.225Z,6.83
2019-05-07T10:16:49.238Z,10.53
2019-05-07T10:19:17.888Z,3.90
2019-05-07T10:21:46.530Z,6.25
2019-05-07T10:24:15.482Z,8.83
2019-05-07T10:26:44.156Z,10.70
2019-05-07T10:29:13.062Z,5.67
2019-05-07T10:31:42.474Z,5.35
2019-05-07T10:34:12.292Z,9.13
2019-05-07T10:36:42.140Z,11.30
2019-05-07T10:39:12.731Z,7.78
2019-05-07T10:41:42.520Z,6.87
2019-05-07T10:44:12.486Z,6.87
2019-05-07T10:47:12.884Z,8.08
2019-05-07T10:49:45.710Z,6.92
2019-05-07T10:52:14.406Z,6.50
2019-05-07T10:54:43.961Z,7.62
2019-05-07T10:57:13.506Z,5.37
2019-05-07T10:59:42.454Z,4.65
2019-05-07T11:02:15.950Z,4.45
2019-05-07T11:04:45.977Z,4.70
2019-05-07T11:07:15.006Z,5.08
2019-05-07T11:09:43.646Z,4.12
2019-05-07T11:12:12.854Z,4.47
2019-05-07T11:14:41.494Z,3.10
2019-05-07T11:17:16.555Z,6.10
2019-05-07T11:19:45.214Z,2.62
2019-05-07T11:22:14.052Z,6.70
2019-05-07T11:24:43.451Z,1.75
2019-05-07T11:27:12.650Z,7.10
2019-05-07T11:29:42.937Z,8.80
2019-05-07T11:32:12.372Z,2.83
2019-05-07T11:34:43.890Z,6.92
2019-05-07T11:37:12.718Z,6.15
2019-05-07T11:39:42.745Z,5.97
2019-05-07T11:42:33.554Z,5.20
2019-05-07T11:45:02.594Z,32.65
2019-05-07T11:47:32.719Z,19.98
2019-05-07T11:50:19.683Z,15.75
2019-05-07T11:52:56.446Z,18.67
2019-05-07T11:55:25.273Z,8.33
2019-05-07T11:57:54.202Z,5.58
2019-05-07T12:00:34.021Z,4.97
2019-05-07T12:03:02.866Z,6.17
2019-05-07T12:05:33.194Z,5.83
2019-05-07T12:08:02.531Z,6.65
2019-05-07T12:10:32.760Z,10.10
2019-05-07T12:13:02.383Z,6.58
2019-05-07T12:15:32.398Z,5.22
2019-05-07T12:18:03.100Z,3.90
2019-05-07T12:20:32.452Z,5.30
2019-05-07T12:23:02.917Z,17.35
2019-05-07T12:25:32.273Z,13.85
2019-05-07T12:28:02.388Z,33.92
2019-05-07T12:30:51.755Z,44.67
2019-05-07T12:33:39.951Z,22.02
2019-05-07T12:36:09.598Z,29.90
2019-05-07T12:38:38.538Z,32.70
2019-05-07T12:41:26.578Z,42.03
2019-05-07T12:43:55.238Z,28.98
2019-05-07T12:46:24.160Z,36.70
2019-05-07T12:48:53.003Z,37.83
2019-05-07T12:51:33.502Z,18.87
2019-05-07T12:53:57.803Z,28.67
2019-05-07T12:56:26.689Z,20.75
2019-05-07T12:58:55.682Z,22.52
2019-05-07T13:01:37.994Z,21.73
2019-05-07T13:04:09.641Z,19.92
2019-05-07T13:06:45.395Z,30.30
2019-05-07T13:09:13.946Z,32.48
2019-05-07T13:11:42.877Z,34.35
2019-05-07T13:14:12.577Z,41.63
2019-05-07T13:16:42.058Z,32.23
2019-05-07T13:19:13.078Z,21.35
2019-05-07T13:21:49.171Z,22.00
2019-05-07T13:24:14.899Z,29.02
2019-05-07T13:26:43.082Z,22.45
2019-05-07T13:29:12.819Z,21.25
2019-05-07T13:31:41.639Z,28.87
2019-05-07T13:34:12.219Z,22.73
2019-05-07T13:36:44.793Z,17.23
2019-05-07T13:39:23.293Z,28.05
2019-05-07T13:41:59.415Z,19.25
2019-05-07T13:44:34.774Z,20.25
2019-05-07T13:47:21.919Z,11.93
2019-05-07T13:49:53.548Z,17.60
2019-05-07T13:52:22.088Z,18.77
2019-05-07T13:54:52.568Z,23.87
2019-05-07T13:57:22.664Z,17.92
2019-05-07T13:59:53.005Z,17.27
2019-05-07T14:02:23.406Z,17.23
2019-05-07T14:04:52.743Z,18.62
2019-05-07T14:07:21.872Z,20.27
2019-05-07T14:09:52.492Z,17.40
2019-05-07T14:12:22.723Z,17.42
2019-05-07T14:14:52.991Z,20.35
2019-05-07T14:17:22.555Z,12.18
2019-05-07T14:19:53.094Z,8.30
2019-05-07T14:22:22.576Z,12.93
2019-05-07T14:24:52.969Z,10.20
2019-05-07T14:27:21.863Z,17.20
2019-05-07T14:29:52.063Z,12.03
2019-05-07T14:32:32.987Z,14.95
2019-05-07T14:35:18.193Z,10.20
2019-05-07T14:37:52.253Z,14.18
2019-05-07T14:40:22.303Z,12.68
2019-05-07T14:42:56.502Z,10.10
2019-05-07T14:45:25.098Z,11.88
2019-05-07T14:47:53.659Z,11.78
2019-05-07T14:50:22.747Z,9.63
2019-05-07T14:52:52.292Z,8.65
2019-05-07T14:55:22.299Z,6.50
2019-05-07T14:57:52.459Z,8.03
2019-05-07T15:00:22.534Z,9.00
2019-05-07T15:02:52.487Z,9.73
2019-05-07T15:05:22.404Z,7.08
2019-05-07T15:07:51.162Z,10.45
2019-05-07T15:10:22.077Z,4.78
2019-05-07T15:12:52.029Z,10.00
2019-05-07T15:15:22.007Z,10.30
2019-05-07T15:18:12.134Z,11.33
2019-05-07T15:20:41.951Z,6.30
2019-05-07T15:23:22.572Z,9.28
2019-05-07T15:25:51.761Z,13.43
2019-05-07T15:28:22.667Z,8.25
2019-05-07T15:31:00.168Z,9.75
2019-05-07T15:33:28.724Z,7.30
2019-05-07T15:35:57.314Z,10.58
2019-05-07T15:38:25.914Z,9.98
2019-05-07T15:40:54.718Z,7.62
2019-05-07T15:43:23.273Z,9.48
2019-05-07T15:45:52.457Z,8.75
2019-05-07T15:48:22.024Z,6.42
2019-05-07T15:50:51.978Z,7.87
2019-05-07T15:53:24.884Z,6.47
2019-05-07T15:55:53.494Z,8.10
2019-05-07T15:58:22.838Z,5.37
2019-05-07T16:00:51.792Z,5.80
2019-05-07T16:03:25.722Z,8.38
2019-05-07T16:05:54.303Z,4.35
2019-05-07T16:08:24.250Z,4.72
2019-05-07T16:10:53.234Z,7.65
2019-05-07T16:13:25.924Z,4.75
2019-05-07T16:15:54.538Z,5.20
2019-05-07T16:18:28.306Z,4.55
2019-05-07T16:20:57.195Z,2.33
2019-05-07T16:23:26.086Z,7.92
2019-05-07T16:25:54.641Z,7.35
2019-05-07T16:28:23.268Z,5.30
2019-05-07T16:30:52.245Z,7.35
2019-05-07T16:33:20.975Z,6.70
2019-05-07T16:35:49.610Z,8.23
2019-05-07T16:38:18.454Z,2.90
2019-05-07T16:40:47.302Z,3.22
2019-05-07T16:43:15.913Z,6.72
2019-05-07T16:45:44.551Z,4.10
2019-05-07T16:50:42.001Z,4.87
2019-05-07T16:53:13.466Z,8.65
2019-05-07T16:55:42.978Z,4.62
2019-05-07T16:58:24.210Z,3.52
2019-05-07T17:00:56.339Z,9.08
2019-05-07T17:03:31.876Z,8.60
2019-05-07T17:06:01.833Z,4.80
2019-05-07T17:08:35.385Z,5.20
2019-05-07T17:11:03.967Z,7.25
2019-05-07T17:13:32.509Z,3.50
2019-05-07T17:16:03.407Z,5.05
2019-05-07T17:18:32.707Z,6.00
2019-05-07T17:21:02.074Z,4.33
2019-05-07T17:23:43.654Z,5.42
2019-05-07T17:26:01.367Z,4.78
2019-05-07T17:28:31.883Z,4.08
2019-05-07T17:31:00.206Z,5.12
2019-05-07T17:33:28.809Z,4.35
2019-05-07T17:35:57.425Z,5.50
2019-05-07T17:38:26.721Z,5.85
2019-05-07T17:41:09.156Z,5.85
2019-05-07T17:43:25.793Z,5.67
2019-05-07T17:45:54.325Z,3.25
2019-05-07T17:48:23.410Z,6.72
2019-05-07T17:51:21.890Z,4.25
2019-05-07T17:53:57.588Z,3.77
2019-05-07T17:56:22.341Z,3.27
2019-05-07T17:58:52.255Z,4.12
2019-05-07T18:01:58.137Z,2.65
2019-05-07T18:04:27.070Z,4.37
2019-05-07T18:06:55.610Z,3.05
2019-05-07T18:09:24.394Z,4.83
2019-05-07T18:11:53.018Z,2.00
2019-05-07T18:14:22.800Z,5.83
2019-05-07T18:17:13.445Z,5.65
2019-05-07T18:19:42.969Z,4.22
2019-05-07T18:22:12.785Z,4.42
2019-05-07T18:24:41.994Z,2.58
2019-05-07T18:27:14.222Z,2.15
2019-05-07T18:29:42.981Z,5.58
2019-05-07T18:32:12.405Z,4.20
2019-05-07T18:34:42.762Z,3.90
2019-05-07T18:37:12.599Z,4.00
2019-05-07T18:39:42.815Z,2.52
2019-05-07T18:42:12.724Z,3.37
2019-05-07T18:44:41.698Z,2.42
2019-05-07T18:47:10.431Z,3.92
2019-05-07T18:49:38.986Z,4.05
2019-05-07T18:52:07.606Z,4.25
2019-05-07T18:54:36.138Z,4.22
2019-05-07T18:57:04.691Z,3.70
2019-05-07T18:59:34.802Z,1.60
2019-05-07T19:02:03.771Z,2.58
2019-05-07T19:04:32.773Z,3.42
2019-05-07T19:07:02.516Z,5.90
2019-05-07T19:09:31.945Z,3.33
2019-05-07T19:12:00.669Z,4.80
2019-05-07T19:14:29.229Z,3.08
2019-05-07T19:16:57.767Z,2.45
2019-05-07T19:19:26.302Z,2.25
2019-05-07T19:21:54.872Z,3.80
2019-05-07T19:24:26.227Z,2.22
2019-05-07T19:26:53.794Z,4.37
2019-05-07T19:29:23.360Z,1.98
2019-05-07T19:31:52.627Z,5.42
2019-05-07T19:34:21.796Z,3.77
2019-05-07T19:36:52.080Z,3.27
2019-05-07T19:39:23.203Z,2.42
2019-05-07T19:41:52.319Z,3.08
2019-05-07T19:44:21.009Z,2.10
2019-05-07T19:46:49.775Z,2.25
2019-05-07T19:49:18.319Z,3.77
2019-05-07T19:51:46.855Z,2.42
2019-05-07T19:54:15.416Z,2.70
2019-05-07T19:56:44.226Z,3.90
2019-05-07T19:59:13.108Z,3.22
2019-05-07T20:01:46.156Z,2.52
2019-05-07T20:04:14.681Z,1.92
2019-05-07T20:06:43.236Z,2.67
2019-05-07T20:09:15.656Z,1.30
2019-05-07T20:11:46.178Z,1.57
2019-05-07T20:14:14.711Z,3.40
2019-05-07T20:16:43.262Z,3.35
2019-05-07T20:19:12.157Z,4.25
2019-05-07T20:21:40.818Z,3.62
2019-05-07T20:24:09.682Z,2.92
2019-05-07T20:26:38.490Z,2.62
2019-05-07T20:29:07.254Z,3.40
2019-05-07T20:31:35.814Z,2.08
2019-05-07T20:34:04.347Z,2.75
2019-05-07T20:36:33.156Z,1.62
2019-05-07T20:39:02.315Z,2.47
2019-05-07T20:41:32.539Z,4.78
2019-05-07T20:44:02.894Z,1.47
2019-05-07T20:46:32.633Z,2.50
2019-05-07T20:49:02.863Z,1.62
2019-05-07T20:51:32.483Z,1.27
2019-05-07T20:54:08.479Z,2.65
2019-05-07T20:56:38.955Z,1.87
2019-05-07T20:59:07.492Z,3.17
2019-05-07T21:01:36.273Z,2.20
2019-05-07T21:04:04.890Z,3.08
2019-05-07T21:06:33.446Z,4.83
2019-05-07T21:09:01.978Z,3.33
2019-05-07T21:11:32.351Z,2.35
2019-05-07T21:14:03.078Z,1.92
2019-05-07T21:16:32.899Z,1.75
2019-05-07T21:19:02.134Z,2.47
2019-05-07T21:21:32.754Z,2.75
2019-05-07T21:24:02.079Z,1.82
2019-05-07T21:26:32.690Z,2.55
2019-05-07T21:29:02.997Z,1.65
2019-05-07T21:31:32.200Z,2.02
2019-05-07T21:34:02.914Z,3.87
2019-05-07T21:36:32.429Z,2.45
2019-05-07T21:39:02.329Z,3.02
2019-05-07T21:41:33.535Z,1.67
2019-05-07T21:44:02.071Z,2.67
2019-05-07T21:46:32.762Z,2.22
2019-05-07T21:49:02.639Z,1.95
2019-05-07T21:51:31.365Z,1.92
2019-05-07T21:54:06.087Z,1.85
2019-05-07T21:56:54.600Z,1.52
2019-05-07T21:59:24.946Z,2.65
2019-05-07T22:01:57.558Z,2.40
2019-05-07T22:04:26.488Z,1.65
2019-05-07T22:06:55.283Z,1.50
2019-05-07T22:09:23.839Z,1.35
2019-05-07T22:11:53.797Z,2.00
2019-05-07T22:14:22.470Z,1.82
2019-05-07T22:16:54.253Z,1.20
2019-05-07T22:19:21.303Z,2.55
2019-05-07T22:21:52.166Z,1.60
2019-05-07T22:24:22.336Z,2.22
2019-05-07T22:26:50.989Z,1.47
2019-05-07T22:29:19.606Z,1.80
2019-05-07T22:31:55.511Z,4.37
2019-05-07T22:34:34.963Z,1.75
2019-05-07T22:37:03.511Z,2.47
2019-05-07T22:39:32.709Z,2.10
2019-05-07T22:42:02.383Z,1.00
2019-05-07T22:44:32.171Z,1.45
2019-05-07T22:47:15.953Z,2.40
2019-05-07T22:49:44.941Z,1.17
2019-05-07T22:52:13.605Z,1.20
2019-05-07T22:54:42.719Z,1.75
2019-05-07T22:57:19.588Z,2.42
2019-05-07T22:59:48.137Z,1.17
2019-05-07T23:02:16.857Z,1.45
2019-05-07T23:04:45.919Z,2.77
2019-05-07T23:07:14.730Z,2.15
2019-05-07T23:09:44.924Z,1.72
2019-05-07T23:12:13.702Z,2.00
2019-05-07T23:14:42.525Z,1.92
2019-05-07T23:17:12.609Z,2.00
2019-05-07T23:19:41.916Z,1.47
2019-05-07T23:22:13.411Z,1.45
2019-05-07T23:24:42.596Z,1.52
2019-05-07T23:27:12.156Z,2.20
2019-05-07T23:29:41.799Z,1.25
2019-05-07T23:32:12.703Z,1.30
2019-05-07T23:34:41.517Z,1.80
2019-05-07T23:37:11.751Z,1.02
2019-05-07T23:39:42.402Z,1.12
2019-05-07T23:42:21.255Z,1.15
2019-05-07T23:44:49.812Z,2.65
2019-05-07T23:47:18.358Z,1.15
2019-05-07T23:49:46.925Z,1.67
2019-05-07T23:52:15.485Z,1.00
2019-05-07T23:54:44.038Z,2.22
2019-05-07T23:57:15.272Z,1.30
2019-05-07T23:59:42.897Z,1.30
